createdAt,value
2022-12-20T00:00:04.684Z,19.34
2022-12-20T00:01:01.748Z,20.17
2022-12-20T00:01:42.624Z,21.52
2022-12-20T00:02:24.407Z,20.69
2022-12-20T00:03:05.638Z,20.38
2022-12-20T00:03:53.628Z,21.25
2022-12-20T00:04:27.399Z,21.42
2022-12-20T00:05:14.596Z,19.76
2022-12-20T00:05:48.981Z,19.23
2022-12-20T00:06:36.609Z,20.79
2022-12-20T00:07:10.422Z,20.74
2022-12-20T00:07:58.591Z,20.76
2022-12-20T00:08:34.772Z,21.24
2022-12-20T00:09:15.596Z,21.56
2022-12-20T00:09:49.689Z,23.39
2022-12-20T00:10:23.449Z,23.23
2022-12-20T00:11:08.577Z,22.44
2022-12-20T00:11:45.854Z,21.56
2022-12-20T00:12:19.521Z,20.71
2022-12-20T00:13:00.578Z,19.64
2022-12-20T00:13:34.640Z,19.25
2022-12-20T00:14:09.489Z,21.31
2022-12-20T00:14:49.575Z,22.40
2022-12-20T00:15:23.730Z,23.26
2022-12-20T00:16:16.341Z,22.27
2022-12-20T00:16:57.599Z,20.64
2022-12-20T00:17:31.752Z,20.63
2022-12-20T00:18:06.589Z,19.91
2022-12-20T00:18:48.542Z,18.67
2022-12-20T00:19:23.047Z,18.70
2022-12-20T00:20:04.663Z,19.69
2022-12-20T00:20:44.674Z,19.06
2022-12-20T00:21:25.546Z,18.69
2022-12-20T00:22:06.709Z,18.27
2022-12-20T00:22:46.561Z,17.85
2022-12-20T00:23:26.664Z,17.76
2022-12-20T00:24:07.552Z,18.61
2022-12-20T00:24:48.656Z,18.60
2022-12-20T00:25:29.567Z,18.67
2022-12-20T00:26:26.611Z,18.35
2022-12-20T00:27:08.548Z,18.58
2022-12-20T00:27:49.925Z,19.25
2022-12-20T00:28:30.527Z,19.77
2022-12-20T00:29:11.596Z,20.64
2022-12-20T00:29:51.543Z,21.24
2022-12-20T00:30:38.552Z,20.96
2022-12-20T00:31:18.927Z,20.13
2022-12-20T00:32:06.612Z,20.06
2022-12-20T00:32:41.355Z,19.80
2022-12-20T00:33:28.559Z,20.16
2022-12-20T00:34:02.644Z,19.80
2022-12-20T00:34:50.528Z,19.05
2022-12-20T00:35:24.227Z,19.15
2022-12-20T00:36:05.567Z,18.44
2022-12-20T00:36:40.770Z,17.75
2022-12-20T00:37:14.796Z,17.35
2022-12-20T00:37:55.514Z,17.46
2022-12-20T00:38:31.796Z,17.80
2022-12-20T00:39:05.759Z,17.95
2022-12-20T00:39:45.530Z,17.99
2022-12-20T00:40:19.672Z,17.90
2022-12-20T00:41:19.558Z,17.69
2022-12-20T00:41:59.667Z,17.86
2022-12-20T00:42:40.520Z,17.80
2022-12-20T00:43:20.594Z,17.50
2022-12-20T00:44:01.535Z,17.95
2022-12-20T00:44:42.618Z,18.99
2022-12-20T00:45:23.506Z,20.00
2022-12-20T00:46:04.876Z,20.84
2022-12-20T00:46:46.570Z,20.24
2022-12-20T00:47:26.813Z,19.16
2022-12-20T00:48:07.515Z,18.35
2022-12-20T00:48:47.648Z,18.46
2022-12-20T00:49:27.510Z,18.38
2022-12-20T00:50:08.551Z,17.55
2022-12-20T00:50:49.544Z,17.75
2022-12-20T00:51:33.990Z,17.86
2022-12-20T00:52:15.540Z,17.66
2022-12-20T00:52:55.725Z,17.79
2022-12-20T00:53:37.516Z,18.14
2022-12-20T00:54:18.542Z,17.81
2022-12-20T00:54:58.517Z,17.10
2022-12-20T00:55:38.539Z,17.48
2022-12-20T00:56:19.502Z,17.65
2022-12-20T00:57:00.874Z,17.61
2022-12-20T00:57:42.529Z,17.65
2022-12-20T00:58:23.630Z,17.85
2022-12-20T00:59:06.543Z,17.76
2022-12-20T00:59:46.622Z,17.66
2022-12-20T01:00:27.512Z,17.48
2022-12-20T01:01:07.670Z,17.79
2022-12-20T01:01:48.713Z,17.25
2022-12-20T01:02:28.727Z,17.83
2022-12-20T01:03:10.634Z,18.36
2022-12-20T01:03:50.653Z,18.13
2022-12-20T01:04:30.490Z,17.50
2022-12-20T01:05:11.862Z,17.88
2022-12-20T01:06:00.528Z,18.39
2022-12-20T01:06:35.790Z,19.11
2022-12-20T01:07:22.507Z,19.98
2022-12-20T01:07:56.689Z,20.76
2022-12-20T01:08:37.537Z,21.67
2022-12-20T01:09:18.605Z,21.26
2022-12-20T01:09:59.537Z,20.71
2022-12-20T01:10:39.562Z,20.86
2022-12-20T01:11:42.500Z,20.19
2022-12-20T01:12:22.588Z,19.09
2022-12-20T01:13:03.498Z,17.80
2022-12-20T01:13:54.510Z,18.42
2022-12-20T01:14:48.498Z,18.31
2022-12-20T01:15:42.499Z,19.75
2022-12-20T01:16:46.607Z,20.55
2022-12-20T01:17:41.482Z,20.17
2022-12-20T01:18:36.499Z,19.89
2022-12-20T01:19:20.513Z,19.19
2022-12-20T01:20:00.705Z,19.09
2022-12-20T01:20:41.521Z,19.35
2022-12-20T01:21:23.640Z,18.36
2022-12-20T01:22:04.472Z,17.80
2022-12-20T01:22:47.684Z,17.25
2022-12-20T01:23:28.501Z,18.01
2022-12-20T01:24:08.509Z,17.90
2022-12-20T01:24:49.584Z,17.55
2022-12-20T01:25:29.659Z,17.42
2022-12-20T01:26:12.509Z,17.69
2022-12-20T01:26:53.552Z,17.38
2022-12-20T01:27:35.483Z,17.34
2022-12-20T01:28:15.572Z,18.06
2022-12-20T01:29:01.507Z,18.73
2022-12-20T01:29:41.682Z,18.51
2022-12-20T01:30:22.486Z,18.38
2022-12-20T01:31:03.597Z,19.02
2022-12-20T01:31:44.587Z,18.88
2022-12-20T01:32:25.208Z,18.98
2022-12-20T01:33:06.460Z,18.89
2022-12-20T01:33:47.859Z,18.36
2022-12-20T01:34:28.486Z,19.96
2022-12-20T01:35:08.627Z,20.70
2022-12-20T01:35:49.565Z,20.35
2022-12-20T01:36:33.569Z,19.86
2022-12-20T01:37:14.498Z,18.96
2022-12-20T01:37:55.622Z,18.76
2022-12-20T01:38:36.476Z,17.91
2022-12-20T01:39:23.027Z,17.19
2022-12-20T01:40:04.474Z,17.33
2022-12-20T01:40:46.526Z,17.99
2022-12-20T01:41:29.483Z,17.65
2022-12-20T01:42:09.528Z,17.01
2022-12-20T01:42:50.464Z,16.98
2022-12-20T01:43:36.717Z,16.90
2022-12-20T01:44:26.493Z,17.52
2022-12-20T01:45:06.530Z,17.15
2022-12-20T01:45:47.473Z,16.96
2022-12-20T01:46:38.546Z,17.49
2022-12-20T01:47:32.480Z,18.09
2022-12-20T01:48:31.449Z,18.77
2022-12-20T01:49:29.448Z,20.05
2022-12-20T01:50:23.468Z,20.00
2022-12-20T01:51:18.467Z,20.16
2022-12-20T01:52:20.502Z,18.11
2022-12-20T01:53:03.988Z,17.04
2022-12-20T01:53:45.451Z,16.89
2022-12-20T01:54:28.579Z,16.50
2022-12-20T01:55:22.440Z,16.56
2022-12-20T01:56:02.524Z,16.15
2022-12-20T01:56:43.447Z,16.66
2022-12-20T01:57:41.511Z,16.26
2022-12-20T01:58:36.513Z,16.25
2022-12-20T01:59:32.467Z,16.84
2022-12-20T02:00:27.481Z,18.27
2022-12-20T02:01:21.494Z,19.64
2022-12-20T02:02:18.818Z,20.75
2022-12-20T02:03:13.579Z,21.17
2022-12-20T02:03:49.624Z,19.95
2022-12-20T02:04:36.429Z,19.09
2022-12-20T02:05:14.718Z,19.01
2022-12-20T02:06:01.431Z,18.17
2022-12-20T02:06:35.468Z,16.75
2022-12-20T02:07:28.413Z,16.10
2022-12-20T02:08:03.626Z,15.56
2022-12-20T02:08:44.447Z,15.56
2022-12-20T02:09:24.501Z,15.44
2022-12-20T02:10:06.429Z,15.29
2022-12-20T02:11:42.670Z,15.41
2022-12-20T02:12:28.437Z,15.48
2022-12-20T02:13:52.458Z,15.74
2022-12-20T02:15:19.425Z,16.24
2022-12-20T02:16:13.459Z,16.13
2022-12-20T02:17:40.427Z,15.98
2022-12-20T02:18:54.484Z,16.61
2022-12-20T02:20:24.452Z,16.99
2022-12-20T02:21:48.460Z,16.69
2022-12-20T02:23:10.416Z,16.71
2022-12-20T02:24:31.477Z,16.75
2022-12-20T02:26:01.423Z,15.79
2022-12-20T02:26:58.422Z,15.50
2022-12-20T02:28:21.412Z,15.50
2022-12-20T02:29:34.447Z,15.38
2022-12-20T02:30:32.426Z,15.57
2022-12-20T02:31:28.494Z,15.27
2022-12-20T02:32:33.403Z,15.31
2022-12-20T02:33:28.452Z,15.38
2022-12-20T02:34:23.420Z,15.39
2022-12-20T02:35:04.429Z,15.66
2022-12-20T02:35:47.454Z,15.85
2022-12-20T02:36:27.398Z,15.74
2022-12-20T02:37:07.471Z,15.80
2022-12-20T02:38:03.410Z,15.66
2022-12-20T02:38:45.484Z,15.79
2022-12-20T02:39:26.405Z,15.84
2022-12-20T02:40:13.407Z,15.32
2022-12-20T02:41:17.427Z,15.81
2022-12-20T02:42:24.384Z,15.65
2022-12-20T02:43:39.420Z,15.60
2022-12-20T02:44:55.422Z,15.66
2022-12-20T02:45:41.433Z,15.23
2022-12-20T02:46:23.519Z,15.29
2022-12-20T02:47:06.455Z,15.43
2022-12-20T02:48:10.726Z,15.09
2022-12-20T02:48:52.372Z,15.25
2022-12-20T02:49:38.627Z,15.20
2022-12-20T02:50:20.409Z,15.43
2022-12-20T02:51:02.417Z,15.56
2022-12-20T02:51:37.468Z,15.99
2022-12-20T02:52:26.412Z,16.24
2022-12-20T02:53:00.606Z,16.34
2022-12-20T02:53:48.375Z,16.14
2022-12-20T02:54:23.435Z,16.81
2022-12-20T02:55:12.383Z,16.71
2022-12-20T02:55:54.526Z,16.39
2022-12-20T02:56:49.428Z,16.42
2022-12-20T02:57:38.567Z,15.93
2022-12-20T02:58:36.381Z,15.51
2022-12-20T02:59:28.414Z,15.48
2022-12-20T03:00:25.362Z,15.35
2022-12-20T03:01:09.487Z,15.57
2022-12-20T03:01:59.597Z,15.55
2022-12-20T03:02:59.974Z,16.20
2022-12-20T03:03:41.412Z,16.59
2022-12-20T03:04:23.524Z,16.11
2022-12-20T03:05:04.380Z,16.19
2022-12-20T03:05:53.577Z,15.99
2022-12-20T03:06:34.405Z,15.88
2022-12-20T03:07:20.387Z,15.85
2022-12-20T03:07:54.790Z,16.13
2022-12-20T03:08:42.372Z,15.93
2022-12-20T03:09:16.441Z,15.27
2022-12-20T03:10:03.390Z,15.68
2022-12-20T03:10:37.568Z,16.06
2022-12-20T03:11:26.371Z,15.40
2022-12-20T03:12:00.650Z,14.96
2022-12-20T03:12:40.380Z,15.15
2022-12-20T03:13:21.512Z,15.31
2022-12-20T03:14:02.354Z,15.11
2022-12-20T03:14:43.455Z,15.49
2022-12-20T03:15:24.360Z,15.61
2022-12-20T03:16:10.988Z,15.27
2022-12-20T03:16:51.428Z,14.73
2022-12-20T03:17:31.473Z,14.43
2022-12-20T03:18:13.398Z,15.38
2022-12-20T03:18:54.550Z,15.69
2022-12-20T03:19:35.405Z,15.29
2022-12-20T03:20:16.419Z,14.91
2022-12-20T03:20:56.331Z,15.06
2022-12-20T03:21:36.447Z,15.30
2022-12-20T03:22:16.364Z,15.21
2022-12-20T03:22:56.419Z,15.26
2022-12-20T03:23:37.401Z,15.29
2022-12-20T03:24:17.515Z,15.00
2022-12-20T03:24:57.349Z,14.75
2022-12-20T03:25:38.623Z,15.06
2022-12-20T03:26:19.369Z,15.20
2022-12-20T03:26:59.516Z,15.00
2022-12-20T03:27:40.334Z,15.07
2022-12-20T03:28:21.467Z,14.91
2022-12-20T03:29:02.413Z,14.86
2022-12-20T03:29:42.581Z,14.61
2022-12-20T03:30:23.376Z,15.04
2022-12-20T03:31:03.730Z,15.25
2022-12-20T03:31:44.337Z,14.98
2022-12-20T03:32:25.429Z,15.05
2022-12-20T03:33:06.326Z,15.41
2022-12-20T03:33:46.401Z,15.48
2022-12-20T03:34:26.401Z,15.16
2022-12-20T03:35:06.451Z,14.69
2022-12-20T03:35:47.380Z,14.74
2022-12-20T03:36:27.607Z,15.02
2022-12-20T03:37:08.347Z,14.27
2022-12-20T03:37:49.603Z,14.60
2022-12-20T03:38:29.315Z,15.00
2022-12-20T03:39:10.781Z,15.41
2022-12-20T03:39:51.337Z,15.59
2022-12-20T03:40:31.396Z,15.76
2022-12-20T03:41:12.299Z,15.34
2022-12-20T03:41:52.427Z,15.20
2022-12-20T03:42:33.335Z,15.29
2022-12-20T03:43:13.384Z,15.10
2022-12-20T03:43:55.337Z,15.54
2022-12-20T03:44:35.500Z,15.66
2022-12-20T03:45:16.344Z,15.63
2022-12-20T03:45:56.465Z,15.98
2022-12-20T03:46:37.329Z,16.50
2022-12-20T03:47:17.600Z,16.91
2022-12-20T03:47:57.340Z,16.81
2022-12-20T03:48:37.404Z,17.30
2022-12-20T03:49:18.337Z,17.51
2022-12-20T03:49:58.649Z,16.65
2022-12-20T03:50:39.349Z,16.15
2022-12-20T03:51:19.426Z,16.54
2022-12-20T03:52:00.307Z,16.39
2022-12-20T03:52:40.394Z,16.51
2022-12-20T03:53:21.325Z,16.24
2022-12-20T03:54:01.353Z,15.75
2022-12-20T03:54:42.323Z,15.91
2022-12-20T03:55:24.028Z,15.73
2022-12-20T03:56:05.333Z,15.75
2022-12-20T03:56:45.508Z,15.98
2022-12-20T03:57:25.316Z,16.20
2022-12-20T03:58:05.356Z,15.74
2022-12-20T03:58:46.306Z,16.16
2022-12-20T03:59:27.424Z,16.27
2022-12-20T04:00:08.307Z,16.05
2022-12-20T04:00:49.335Z,16.25
2022-12-20T04:01:34.509Z,16.80
2022-12-20T04:02:14.673Z,17.45
2022-12-20T04:02:54.535Z,17.96
2022-12-20T04:03:34.591Z,18.01
2022-12-20T04:04:18.311Z,16.99
2022-12-20T04:04:58.349Z,17.26
2022-12-20T04:05:39.310Z,17.77
2022-12-20T04:06:19.465Z,17.06
2022-12-20T04:07:00.321Z,17.19
2022-12-20T04:07:40.685Z,17.51
2022-12-20T04:08:21.344Z,17.67
2022-12-20T04:09:01.641Z,16.90
2022-12-20T04:09:42.354Z,16.98
2022-12-20T04:10:22.339Z,16.54
2022-12-20T04:11:21.290Z,16.90
2022-12-20T04:12:08.328Z,16.90
2022-12-20T04:13:02.310Z,16.45
2022-12-20T04:14:01.323Z,16.56
2022-12-20T04:14:55.298Z,16.63
2022-12-20T04:15:53.026Z,17.63
2022-12-20T04:16:49.294Z,18.01
2022-12-20T04:17:29.315Z,17.23
2022-12-20T04:18:09.359Z,17.50
2022-12-20T04:18:50.292Z,17.50
2022-12-20T04:19:31.578Z,18.20
2022-12-20T04:20:25.300Z,17.75
2022-12-20T04:21:07.403Z,17.85
2022-12-20T04:21:48.308Z,18.45
2022-12-20T04:22:28.384Z,18.27
2022-12-20T04:23:09.309Z,18.36
2022-12-20T04:23:50.556Z,18.39
2022-12-20T04:24:31.281Z,17.85
2022-12-20T04:25:12.876Z,16.75
2022-12-20T04:25:53.292Z,16.76
2022-12-20T04:26:33.432Z,17.27
2022-12-20T04:27:14.304Z,16.91
2022-12-20T04:27:54.347Z,16.71
2022-12-20T04:28:36.347Z,16.42
2022-12-20T04:29:16.374Z,16.95
2022-12-20T04:29:56.271Z,16.65
2022-12-20T04:30:36.355Z,16.13
2022-12-20T04:31:21.900Z,16.35
2022-12-20T04:32:05.351Z,16.10
2022-12-20T04:32:46.258Z,16.44
2022-12-20T04:33:27.515Z,15.50
2022-12-20T04:34:08.321Z,15.80
2022-12-20T04:34:48.373Z,16.54
2022-12-20T04:35:29.314Z,16.54
2022-12-20T04:36:09.367Z,15.76
2022-12-20T04:36:49.309Z,15.84
2022-12-20T04:37:29.318Z,16.10
2022-12-20T04:38:10.253Z,16.55
2022-12-20T04:38:50.352Z,17.25
2022-12-20T04:39:31.336Z,17.30
2022-12-20T04:40:13.852Z,17.10
2022-12-20T04:41:00.297Z,17.42
2022-12-20T04:41:40.387Z,17.86
2022-12-20T04:42:20.263Z,17.80
2022-12-20T04:43:01.317Z,17.52
2022-12-20T04:43:42.265Z,17.45
2022-12-20T04:44:22.452Z,17.35
2022-12-20T04:45:02.283Z,16.94
2022-12-20T04:45:42.389Z,16.91
2022-12-20T04:46:23.321Z,16.08
2022-12-20T04:47:04.446Z,16.27
2022-12-20T04:47:44.249Z,16.71
2022-12-20T04:49:27.260Z,17.05
2022-12-20T04:50:22.271Z,16.90
2022-12-20T04:51:16.259Z,17.14
2022-12-20T04:52:28.282Z,17.16
2022-12-20T04:53:43.275Z,17.17
2022-12-20T04:54:40.254Z,17.33
2022-12-20T04:55:34.293Z,16.76
2022-12-20T04:56:42.270Z,17.25
2022-12-20T04:57:36.285Z,17.67
2022-12-20T04:58:31.267Z,17.95
2022-12-20T04:59:25.231Z,17.80
2022-12-20T05:00:22.267Z,17.38
2022-12-20T05:01:02.268Z,17.15
2022-12-20T05:01:43.662Z,17.24
2022-12-20T05:02:24.356Z,16.56
2022-12-20T05:03:05.746Z,16.52
2022-12-20T05:03:47.325Z,16.76
2022-12-20T05:04:35.057Z,17.00
2022-12-20T05:05:18.217Z,17.38
2022-12-20T05:05:59.491Z,16.36
2022-12-20T05:06:40.291Z,15.91
2022-12-20T05:07:20.325Z,16.31
2022-12-20T05:08:02.242Z,16.63
2022-12-20T05:08:43.294Z,16.45
2022-12-20T05:09:23.287Z,16.51
2022-12-20T05:10:04.313Z,16.64
2022-12-20T05:10:45.244Z,16.36
2022-12-20T05:11:25.355Z,17.02
2022-12-20T05:12:05.266Z,17.23
2022-12-20T05:12:45.389Z,16.80
2022-12-20T05:13:26.240Z,16.94
2022-12-20T05:14:06.393Z,17.29
2022-12-20T05:14:46.235Z,17.36
2022-12-20T05:15:26.442Z,17.70
2022-12-20T05:16:07.310Z,18.40
2022-12-20T05:16:47.250Z,18.88
2022-12-20T05:17:28.250Z,18.35
2022-12-20T05:18:08.352Z,18.60
2022-12-20T05:18:58.860Z,19.40
2022-12-20T05:19:39.284Z,20.01
2022-12-20T05:20:20.240Z,20.48
2022-12-20T05:21:24.115Z,19.34
2022-12-20T05:22:23.215Z,19.59
2022-12-20T05:23:22.250Z,19.51
2022-12-20T05:24:14.865Z,19.00
2022-12-20T05:25:22.253Z,18.46
2022-12-20T05:26:15.872Z,18.60
2022-12-20T05:27:03.211Z,18.85
2022-12-20T05:27:37.414Z,17.80
2022-12-20T05:28:25.343Z,17.75
2022-12-20T05:28:59.415Z,17.35
2022-12-20T05:29:47.199Z,17.19
2022-12-20T05:30:21.378Z,16.91
2022-12-20T05:31:09.237Z,16.65
2022-12-20T05:31:43.395Z,16.96
2022-12-20T05:32:30.223Z,16.99
2022-12-20T05:33:04.272Z,17.00
2022-12-20T05:33:45.227Z,17.45
2022-12-20T05:34:25.286Z,17.71
2022-12-20T05:35:06.198Z,17.49
2022-12-20T05:35:46.378Z,17.81
2022-12-20T05:36:27.196Z,17.14
2022-12-20T05:37:07.308Z,16.64
2022-12-20T05:37:48.184Z,16.77
2022-12-20T05:38:30.250Z,16.38
2022-12-20T05:39:11.260Z,16.71
2022-12-20T05:39:51.289Z,17.10
2022-12-20T05:40:32.219Z,16.48
2022-12-20T05:41:12.313Z,16.69
2022-12-20T05:41:53.195Z,16.73
2022-12-20T05:42:33.309Z,17.31
2022-12-20T05:43:14.177Z,17.26
2022-12-20T05:43:54.238Z,16.42
2022-12-20T05:44:35.230Z,16.48
2022-12-20T05:45:15.251Z,16.92
2022-12-20T05:45:59.210Z,17.15
2022-12-20T05:46:39.424Z,17.11
2022-12-20T05:47:19.195Z,17.39
2022-12-20T05:47:59.268Z,17.23
2022-12-20T05:48:40.194Z,17.04
2022-12-20T05:49:20.222Z,17.59
2022-12-20T05:50:02.215Z,17.44
2022-12-20T05:50:44.149Z,17.90
2022-12-20T05:51:25.196Z,17.92
2022-12-20T05:52:05.588Z,17.41
2022-12-20T05:52:45.193Z,17.59
2022-12-20T05:53:26.527Z,18.38
2022-12-20T05:54:07.317Z,19.06
2022-12-20T05:55:01.201Z,18.79
2022-12-20T05:55:42.173Z,18.56
2022-12-20T05:56:22.339Z,19.31
2022-12-20T05:57:02.169Z,19.74
2022-12-20T05:57:42.223Z,19.50
2022-12-20T05:58:23.204Z,19.33
2022-12-20T05:59:03.272Z,19.55
2022-12-20T05:59:43.179Z,19.45
2022-12-20T06:00:24.205Z,19.50
2022-12-20T06:00:58.273Z,19.45
2022-12-20T06:01:45.246Z,19.21
2022-12-20T06:02:19.347Z,18.83
2022-12-20T06:03:06.262Z,18.24
2022-12-20T06:03:40.694Z,17.94
2022-12-20T06:04:28.159Z,18.38
2022-12-20T06:05:02.856Z,18.80
2022-12-20T06:05:45.206Z,18.73
2022-12-20T06:06:26.275Z,18.55
2022-12-20T06:07:07.228Z,18.45
2022-12-20T06:07:49.014Z,17.71
2022-12-20T06:08:31.167Z,18.27
2022-12-20T06:09:12.467Z,18.59
2022-12-20T06:09:53.154Z,18.25
2022-12-20T06:10:34.615Z,18.73
2022-12-20T06:11:14.189Z,18.60
2022-12-20T06:11:54.260Z,18.40
2022-12-20T06:12:34.162Z,19.01
2022-12-20T06:13:18.204Z,19.24
2022-12-20T06:13:58.163Z,18.74
2022-12-20T06:14:38.199Z,18.67
2022-12-20T06:15:20.160Z,18.88
2022-12-20T06:16:01.305Z,18.31
2022-12-20T06:16:42.201Z,18.85
2022-12-20T06:17:24.220Z,19.05
2022-12-20T06:18:04.172Z,18.64
2022-12-20T06:18:44.221Z,17.81
2022-12-20T06:19:24.159Z,18.01
2022-12-20T06:20:04.255Z,17.89
2022-12-20T06:20:45.151Z,17.77
2022-12-20T06:21:25.213Z,17.54
2022-12-20T06:22:07.159Z,17.44
2022-12-20T06:22:47.248Z,18.73
2022-12-20T06:23:28.162Z,19.33
2022-12-20T06:24:08.426Z,18.49
2022-12-20T06:24:48.930Z,18.42
2022-12-20T06:25:29.286Z,19.09
2022-12-20T06:26:11.161Z,18.79
2022-12-20T06:26:51.276Z,17.81
2022-12-20T06:27:32.171Z,17.51
2022-12-20T06:28:12.190Z,17.83
2022-12-20T06:28:53.185Z,17.98
2022-12-20T06:29:33.214Z,17.90
2022-12-20T06:30:15.179Z,17.80
2022-12-20T06:31:03.345Z,17.98
2022-12-20T06:31:44.194Z,18.04
2022-12-20T06:32:24.209Z,17.63
2022-12-20T06:33:04.183Z,18.23
2022-12-20T06:33:44.720Z,18.50
2022-12-20T06:34:26.157Z,18.34
2022-12-20T06:35:06.259Z,18.09
2022-12-20T06:35:47.146Z,18.42
2022-12-20T06:36:27.235Z,18.31
2022-12-20T06:37:07.157Z,19.09
2022-12-20T06:37:42.180Z,19.99
2022-12-20T06:38:29.191Z,19.88
2022-12-20T06:39:07.785Z,20.06
2022-12-20T06:39:57.138Z,20.75
2022-12-20T06:40:30.852Z,20.52
2022-12-20T06:41:18.127Z,19.60
2022-12-20T06:41:51.808Z,19.35
2022-12-20T06:42:39.114Z,19.13
2022-12-20T06:43:13.073Z,18.74
2022-12-20T06:43:53.168Z,18.88
2022-12-20T06:44:27.185Z,18.56
2022-12-20T06:45:00.880Z,18.33
2022-12-20T06:45:42.795Z,17.75
2022-12-20T06:46:17.342Z,17.24
2022-12-20T06:46:50.822Z,17.96
2022-12-20T06:47:31.138Z,17.83
2022-12-20T06:48:05.149Z,16.98
2022-12-20T06:48:38.796Z,17.52
2022-12-20T06:49:20.181Z,17.35
2022-12-20T06:49:54.167Z,17.21
2022-12-20T06:50:27.939Z,17.79
2022-12-20T06:51:09.150Z,17.23
2022-12-20T06:51:43.244Z,16.81
2022-12-20T06:52:16.824Z,16.98
2022-12-20T06:52:58.138Z,17.09
2022-12-20T06:53:32.278Z,17.16
2022-12-20T06:54:05.847Z,17.89
2022-12-20T06:54:46.125Z,17.48
2022-12-20T06:55:20.142Z,17.19
2022-12-20T06:55:53.861Z,17.63
2022-12-20T06:56:40.880Z,18.16
2022-12-20T06:57:15.169Z,17.61
2022-12-20T06:57:48.869Z,17.15
2022-12-20T06:58:30.113Z,17.44
2022-12-20T06:59:04.390Z,17.40
2022-12-20T06:59:37.847Z,17.09
2022-12-20T07:00:20.130Z,17.11
2022-12-20T07:00:54.204Z,17.58
2022-12-20T07:01:27.856Z,17.65
2022-12-20T07:02:09.280Z,18.02
2022-12-20T07:02:43.270Z,18.20
2022-12-20T07:03:16.901Z,18.31
2022-12-20T07:03:57.134Z,17.95
2022-12-20T07:04:31.212Z,17.41
2022-12-20T07:05:05.543Z,17.51
2022-12-20T07:05:46.143Z,17.90
2022-12-20T07:06:20.186Z,18.19
2022-12-20T07:06:53.888Z,17.75
2022-12-20T07:07:40.223Z,17.99
2022-12-20T07:08:18.329Z,18.45
2022-12-20T07:08:51.848Z,18.36
2022-12-20T07:09:32.098Z,17.67
2022-12-20T07:10:06.167Z,17.63
2022-12-20T07:10:39.793Z,17.52
2022-12-20T07:11:20.128Z,17.56
2022-12-20T07:11:54.238Z,17.73
2022-12-20T07:12:27.844Z,17.49
2022-12-20T07:13:08.088Z,17.46
2022-12-20T07:13:42.197Z,17.98
2022-12-20T07:14:15.815Z,18.10
2022-12-20T07:14:57.090Z,17.26
2022-12-20T07:15:31.484Z,16.74
2022-12-20T07:16:07.378Z,17.44
2022-12-20T07:16:50.167Z,17.27
2022-12-20T07:17:24.176Z,16.88
2022-12-20T07:18:00.523Z,17.17
2022-12-20T07:18:42.107Z,17.20
2022-12-20T07:19:19.307Z,17.80
2022-12-20T07:19:53.066Z,16.95
2022-12-20T07:20:34.099Z,16.95
2022-12-20T07:21:10.193Z,17.44
2022-12-20T07:21:44.075Z,17.85
2022-12-20T07:22:24.093Z,17.79
2022-12-20T07:22:58.166Z,17.98
2022-12-20T07:23:33.219Z,17.65
2022-12-20T07:24:14.150Z,17.81
2022-12-20T07:24:48.152Z,17.52
2022-12-20T07:25:22.039Z,17.69
2022-12-20T07:26:04.224Z,18.24
2022-12-20T07:26:38.144Z,18.66
2022-12-20T07:27:12.072Z,18.56
2022-12-20T07:27:56.087Z,18.75
2022-12-20T07:28:31.115Z,19.14
2022-12-20T07:29:04.968Z,18.96
2022-12-20T07:29:48.091Z,18.70
2022-12-20T07:30:23.473Z,19.10
2022-12-20T07:31:02.296Z,20.15
2022-12-20T07:31:43.239Z,20.40
2022-12-20T07:32:19.500Z,21.08
2022-12-20T07:32:53.901Z,22.06
2022-12-20T07:33:35.097Z,22.55
2022-12-20T07:34:09.106Z,24.21
2022-12-20T07:34:42.832Z,25.14
2022-12-20T07:35:23.104Z,25.39
2022-12-20T07:35:57.131Z,25.38
2022-12-20T07:36:31.862Z,24.74
2022-12-20T07:37:12.112Z,24.23
2022-12-20T07:37:53.174Z,25.76
2022-12-20T07:38:34.069Z,27.23
2022-12-20T07:39:15.193Z,25.73
2022-12-20T07:39:49.151Z,24.42
2022-12-20T07:40:22.786Z,25.10
2022-12-20T07:41:04.066Z,24.95
2022-12-20T07:41:38.388Z,23.80
2022-12-20T07:42:12.160Z,24.31
2022-12-20T07:42:52.090Z,25.98
2022-12-20T07:43:26.265Z,28.14
2022-12-20T07:44:06.099Z,29.27
2022-12-20T07:44:47.654Z,31.05
2022-12-20T07:45:28.128Z,30.59
2022-12-20T07:46:11.713Z,29.02
2022-12-20T07:46:52.084Z,28.38
2022-12-20T07:47:32.107Z,29.54
2022-12-20T07:48:17.873Z,31.75
2022-12-20T07:49:01.333Z,31.52
2022-12-20T07:49:43.128Z,29.61
2022-12-20T07:50:23.127Z,30.42
2022-12-20T07:51:08.063Z,32.04
2022-12-20T07:51:54.340Z,32.51
2022-12-20T07:52:36.066Z,32.41
2022-12-20T07:53:17.996Z,31.17
2022-12-20T07:54:12.162Z,30.88
2022-12-20T07:55:09.204Z,30.66
2022-12-20T07:55:42.990Z,27.88
2022-12-20T07:56:36.041Z,25.70
2022-12-20T07:57:54.208Z,25.00
2022-12-20T07:58:36.166Z,23.91
2022-12-20T07:59:18.103Z,23.19
2022-12-20T08:00:03.033Z,22.38
2022-12-20T08:00:44.058Z,21.96
2022-12-20T08:01:19.901Z,21.76
2022-12-20T08:02:08.422Z,22.13
2022-12-20T08:03:03.331Z,21.80
2022-12-20T08:03:58.179Z,21.56
2022-12-20T08:04:34.198Z,21.44
2022-12-20T08:05:22.033Z,20.83
2022-12-20T08:06:10.075Z,20.51
2022-12-20T08:07:05.037Z,20.27
2022-12-20T08:08:00.180Z,19.45
2022-12-20T08:09:01.043Z,19.11
2022-12-20T08:09:57.074Z,19.63
2022-12-20T08:10:52.075Z,37.30
2022-12-20T08:11:33.038Z,185.31
2022-12-20T08:12:15.133Z,245.82
2022-12-20T08:12:57.036Z,87.38
2022-12-20T08:13:46.041Z,27.73
2022-12-20T08:14:28.036Z,22.06
2022-12-20T08:15:09.141Z,20.11
2022-12-20T08:15:50.047Z,19.94
2022-12-20T08:16:31.235Z,19.83
2022-12-20T08:17:12.148Z,19.71
2022-12-20T08:17:52.198Z,19.54
2022-12-20T08:18:32.029Z,19.51
2022-12-20T08:19:12.620Z,19.74
2022-12-20T08:19:54.032Z,20.10
2022-12-20T08:20:34.061Z,20.15
2022-12-20T08:21:15.060Z,19.58
2022-12-20T08:21:55.092Z,20.04
2022-12-20T08:22:35.042Z,21.01
2022-12-20T08:23:15.769Z,21.41
2022-12-20T08:23:57.030Z,21.55
2022-12-20T08:24:38.291Z,21.77
2022-12-20T08:25:19.016Z,22.26
2022-12-20T08:25:59.223Z,23.79
2022-12-20T08:26:48.009Z,24.01
2022-12-20T08:27:28.051Z,24.61
2022-12-20T08:28:09.068Z,23.45
2022-12-20T08:28:49.241Z,23.80
2022-12-20T08:29:30.045Z,24.02
2022-12-20T08:30:12.531Z,23.13
2022-12-20T08:30:53.070Z,23.01
2022-12-20T08:31:33.138Z,23.01
2022-12-20T08:32:15.021Z,21.76
2022-12-20T08:32:56.158Z,20.59
2022-12-20T08:33:38.021Z,20.90
2022-12-20T08:34:18.075Z,21.39
2022-12-20T08:35:00.059Z,20.88
2022-12-20T08:35:41.119Z,20.42
2022-12-20T08:36:22.021Z,19.20
2022-12-20T08:37:02.063Z,19.48
2022-12-20T08:37:43.008Z,20.16
2022-12-20T08:38:23.047Z,19.50
2022-12-20T08:39:03.039Z,19.46
2022-12-20T08:39:44.060Z,19.80
2022-12-20T08:40:26.105Z,19.42
2022-12-20T08:41:16.075Z,19.54
2022-12-20T08:41:56.027Z,19.90
2022-12-20T08:42:36.036Z,19.55
2022-12-20T08:43:17.010Z,19.70
2022-12-20T08:43:57.033Z,19.89
2022-12-20T08:44:38.022Z,19.40
2022-12-20T08:45:19.453Z,19.33
2022-12-20T08:46:01.077Z,19.50
2022-12-20T08:46:41.088Z,20.19
2022-12-20T08:47:22.006Z,20.52
2022-12-20T08:48:02.045Z,20.95
2022-12-20T08:48:42.994Z,20.13
2022-12-20T08:49:24.108Z,20.54
2022-12-20T08:50:05.058Z,20.30
2022-12-20T08:50:45.406Z,19.88
2022-12-20T08:51:26.085Z,20.51
2022-12-20T08:52:07.085Z,20.39
2022-12-20T08:52:46.988Z,20.67
2022-12-20T08:53:27.050Z,20.59
2022-12-20T08:54:09.027Z,20.45
2022-12-20T08:54:49.026Z,19.71
2022-12-20T08:55:29.674Z,19.20
2022-12-20T08:56:17.161Z,18.96
2022-12-20T08:56:58.030Z,19.38
2022-12-20T08:57:39.052Z,19.98
2022-12-20T08:58:19.988Z,19.94
2022-12-20T08:59:00.092Z,19.80
2022-12-20T08:59:40.989Z,19.36
2022-12-20T09:00:22.141Z,19.08
2022-12-20T09:01:09.042Z,18.92
2022-12-20T09:01:49.756Z,19.91
2022-12-20T09:02:54.390Z,20.38
2022-12-20T09:03:51.094Z,19.74
2022-12-20T09:04:44.975Z,19.71
2022-12-20T09:05:38.995Z,19.27
2022-12-20T09:06:28.010Z,19.24
2022-12-20T09:07:02.063Z,19.39
2022-12-20T09:07:48.999Z,19.91
2022-12-20T09:08:23.296Z,19.45
2022-12-20T09:09:12.012Z,19.31
2022-12-20T09:09:46.149Z,18.88
2022-12-20T09:10:32.967Z,19.17
2022-12-20T09:11:17.268Z,20.04
2022-12-20T09:11:57.986Z,20.50
2022-12-20T09:12:38.250Z,19.15
2022-12-20T09:13:18.987Z,18.98
2022-12-20T09:14:02.040Z,19.31
2022-12-20T09:14:41.963Z,19.86